Skip to content

GuitarMania

List of Articles
번호 제목 글쓴이 날짜 조회 수
1792 그댄 봄비를 무척 좋아하나요(조옮김version) 9 file huhu.. 2007.07.28 8227
1791 16. Lettre a Isaac, Emilio et les autres - Roland Dyens 4 file 밀롱가. 2007.07.25 3920
1790 종소리 3 file 칠점 2007.07.24 4342
1789 카르카시25 연습곡중 16번_ 3 file 암흑 2007.07.24 5004
1788 김현식의 "사랑했어요" 5 file huhu.. 2007.07.23 6111
1787 유심초의 "사랑하는 그대에게" file huhu.. 2007.07.23 6544
1786 15. Lettre a Jacues Cartier - Roland Dyens 1 file 밀롱가. 2007.07.21 3914
1785 14. Lettre au calme - Roland Dyens 1 file 밀롱가. 2007.07.21 4021
1784 비가오네요...rain drops입니다.. 3 file amabile 2007.07.19 4240
1783 13. Lettre et le neant - Roland Dyens 11 file 밀롱가. 2007.07.18 4320
1782 12. Lettre a demain - Roland Dyens 1 file 밀롱가. 2007.07.18 3919
1781 11. Lettre Nordestine - Roland Dyens 2 file 밀롱가. 2007.07.17 3907
1780 Agustin Barrios, Preludio en do menor 2 file 팔리아치 2007.07.17 5661
1779 La Catedral, I. Preludio Saudade 2 file 팔리아치 2007.07.17 5590
1778 라리아네의 축제 4 file yhc 2007.07.16 5214
1777 10. Lettre a la vieille Angleterre - Roland Dyens 5 file 밀롱가. 2007.07.15 3934
1776 9. Lettre a Claude et Maurice- Roland Dyens 3 file 밀롱가. 2007.07.14 4516
1775 로망스-원큐 애드립 놀이 6 file 팔리아치 2007.07.14 4885
1774 타레가 에튜드로 오른손 변주 2 file 팔리아치 2007.07.14 4335
1773 아침 손풀이 카바티나 3 file 팔리아치 2007.07.14 4252
1772 월광-베토벤 입니다. 8 file G-Love 2007.07.13 4891
1771 8. Venezuelettre - Roland Dyens 2 file 밀롱가. 2007.07.12 3674
1770 7. Lettre latine - Roland Dyens 3 file 밀롱가. 2007.07.12 4442
1769 카르카시25 연습곡중 16번 3 file 암흑 2007.07.12 5057
1768 샤콩 좋아하는부분만 잘라서 2 file 좁은길로 2007.07.11 3905
1767 6. Lettre mi-longue - Roland Dyens 2 file 밀롱가. 2007.07.11 3837
1766 로망스-스패인민요 입니다. 10 file G-Love 2007.07.11 4700
1765 쉘부르의 우산 18 file 항해사 2007.07.11 6040
1764 항구의 봄 (Primavera portena) 4 예의서방 2007.07.10 5584
1763 The Flatt Pavin -John Johnson 8 file 지초이 2007.07.10 4072
1762 Galliard -John Johnson 1 file 지초이 2007.07.10 4005
1761 Schubert Minuet and Trio,Trans by Tarrega - Jason님 연주 11 암흑 2007.07.09 4419
1760 세레나데-슈베르트 입니다. 4 file G-Love 2007.07.09 5145
1759 마적 3 file 칠점 2007.07.08 4197
1758 故김광석의 "거리에서" 8 file huhu.. 2007.07.08 7727
1757 연습중인 BWV998 ,Prelude 부분 1 file 좁은길로 2007.07.08 6517
1756 5. Lettre francaise - Roland Dyens 2 file 밀롱가. 2007.07.07 3999
1755 Franz Peter Schubert - Nacht und Traume(밤과꿈) 8 file 항해사 2007.07.07 5101
1754 4. Lettre a soi-meme - Roland Dyens 3 file 밀롱가. 2007.07.05 3728
1753 카르카시25 연습곡중 15번 10 file 암흑 2007.07.05 4312
1752 3. Lettre noire - Roland Dyens 6 file 밀롱가. 2007.07.04 3834
1751 알함브라행 막차.. 8 file 진느 2007.07.04 4838
1750 2. Lettre a la Seine - Roland Dyens 3 file 밀롱가. 2007.07.03 3926
1749 1. Lettre a Sydney - Roland Dyens 2 file 밀롱가. 2007.07.02 4694
1748 Eric Clapton - Signe 8 2007.07.02 5627
1747 Twilight (黃昏 : 황혼) 4 2007.07.02 4785
1746 Leo Brouwer 10 Etude Simples - #10 7 file 밀롱가. 2007.06.29 4264
1745 Leo Brouwer 10 Etude Simples - #9 3 file 밀롱가. 2007.06.29 4031
1744 알함브라 2 file 칠점 2007.06.29 4588
1743 꿈길에서 - 포스터 4 file 짜가운오적어 2007.06.27 5867
1742 캐리비안의 해적 He is a pirate 44 file MSGr 2007.06.27 8595
1741 [예전꺼] 별헤는 아이 5 file 항해사 2007.06.23 4749
1740 꿀벌 1 file 칠점 2007.06.21 5382
1739 Leo Brouwer 10 Etude Simples - #8 2 file 밀롱가. 2007.06.19 4317
1738 심상 (망고레) 이어지는 삽질의 원샷 4 file PassMan 2007.06.19 4546
1737 El Ultimo Cancion 간만에 원샷 녹음 4 file PassMan 2007.06.19 5734
1736 알함브라- 콩쿨 지정곡(ㅋㅋㅋ) 7 file fernando 2007.06.19 4811
1735 제가 혼자 삽질한 알함브라입니다.ㅠ 3 file 런던busker 2007.06.19 4041
1734 울티모 3 file 칠점 2007.06.18 4802
1733 카르카시25 연습곡중 14번 10 file 암흑 2007.06.17 5525
1732 sonata brillant-M.Giuliani 3 file yhc 2007.06.16 6919
1731 요즘 연습중인 스카를랏티 소나타 k380 4 file 최병욱 2007.06.16 4400
1730 F . Tarrega - Recuerdos de la Alhambra 12 file 고정석 2007.06.15 5922
1729 Recuerdos de la Alhambra 6 file 2007.06.15 6017
1728 Leo Brouwer 10 Etude Simples - #7 4 file 밀롱가. 2007.06.15 3875
1727 Andantino Op.2 No3- Sor 9 file 지초이 2007.06.15 4061
1726 Leo Brouwer 10 Etude Simples - #6 2 file 밀롱가. 2007.06.14 3562
1725 Leo Brouwer 10 Etude Simples - #5 file 밀롱가. 2007.06.14 3933
1724 Leo Brouwer 10 Etude Simples - #4 file 밀롱가. 2007.06.14 3914
1723 바하의 G선상의 아리아[Aria in Suite 3] mrpotato 2007.06.14 5386
1722 대리석궁전에 사는 꿈을 꾸었어요[I dreamt I dwelt in marble halls] 2 mrpotato 2007.06.14 7857
1721 바위섬[Rock Island] mrpotato 2007.06.14 4736
1720 [동영상]He is a pirate (영화 "캐리비언의 해적"중에서) 9 file 꼬마영규 2007.06.10 7405
1719 바흐 류트 조곡 1번 프렐류드.. 1 manicstreetprechers 2007.06.10 4304
1718 윤도현 "사랑했나봐" 3 huhu.. 2007.06.10 5440
1717 [re] "사랑했나봐" 조정분 file huhu.. 2007.08.14 4439
1716 센과 치히로 행방불명 ost 3 - 情 - 2007.06.10 5537
1715 Leo Brouwer 10 Etude Simples - #3 1 file 밀롱가. 2007.06.10 4262
1714 햇빛촌 "유리창엔 비" huhu.. 2007.06.08 6066
1713 은희 "꽃반지 끼고" 4 huhu.. 2007.06.08 7898
1712 꽃반지 끼고 - 은희 14 file 항해사 2007.06.08 6986
1711 Leo Brouwer 10 Etude Simples - #2 5 file 밀롱가. 2007.06.08 4053
1710 Leo Brouwer 10 Etude Simples - #1 3 file 밀롱가. 2007.06.06 4201
1709 Avec le temps 2 file 밀롱가. 2007.06.02 4133
1708 조용필 "물망초" huhu.. 2007.06.02 5813
1707 알함브라궁전의 추억 3 굼벵이 2007.06.02 4914
1706 벌새 2 칠점 2007.06.01 5253
1705 월량대표아적심 13 file G-Love 2007.06.01 4857
1704 울티모 6 칠점 2007.05.30 3931
1703 알함브라 6 file G-Love 2007.05.30 4476
1702 [re] 알함브라 5 barrios 2007.05.30 3998
1701 촛불-정태춘 3 file yhc 2007.05.29 4653
1700 오페라 잔니 스키키에서 아버지에게 소원 10 file 항해사 2007.05.29 4735
1699 홍삼트리오 "기도" 9 huhu.. 2007.05.29 5847
1698 이루의 "까만안경" 3 huhu.. 2007.05.29 5033
1697 [re] "까만안경" 조정분 file huhu.. 2007.08.14 4373
1696 월량대표아적심(月亮代表我的心) 70 huhu.. 2007.05.29 16595
1695 [re] 월량대표아적심(月亮代表我的心) 조정분 file huhu.. 2007.08.14 4587
1694 카바티나 8 file G-Love 2007.05.27 4422
1693 아침이슬-김민기(동영상) 6 file yhc 2007.05.24 5309
Board Pagination ‹ Prev 1 2 3 4 5 6 7 8 9 10 11 12 13 14 15 16 17 18 19 20 21 ... 29 Next ›
/ 29

나눔글꼴 설치 안내


이 PC에는 나눔글꼴이 설치되어 있지 않습니다.

이 사이트를 나눔글꼴로 보기 위해서는
나눔글꼴을 설치해야 합니다.

설치 취소

Designed by sketchbooks.co.kr / sketchbook5 board skin

Sketchbook5, 스케치북5

Sketchbook5, 스케치북5

Sketchbook5, 스케치북5

Sketchbook5, 스케치북5

Powered by Xpress Engine / Designed by hikaru100

abcXYZ, 세종대왕,1234

abcXYZ, 세종대왕,1234